YSTW

Tamworth Airport

Tamworth, Australia
TAF YSTW 200508Z 2006/2024 08008KT 9999 FEW030 SCT100 PROB30 TEMPO 2006/2024 VRB25G40KT 4000 TSRA SCT030 FEW100CB
Issued Valid From Valid To
Jan-20 @ 05:08 UTC
(7 hours ago)
Jan-20 @ 06:00 UTC
(6 hours ago)
Jan-21 @ 00:00 UTC
(in 12 hours)
Jan-20 @ 06:00 to Jan-21 @ 00:00
TAF YSTW 200508Z 2006/2024 08008KT 9999 FEW030 SCT100
Wind Visibility Clouds
80° at 8 knots 10,000+ meters
  • Few at 3,000' AGL
  • Scattered at 10,000' AGL
Temporary  (Probability 30%) Jan-20 @ 06:00 to Jan-21 @ 00:00
PROB30 TEMPO 2006/2024 VRB25G40KT 4000 TSRA SCT030 FEW100CB
Wind Visibility Clouds Conditions
Variable at 25 knots
 Gusting to 40 knots
4,007 meters
  • Scattered at 3,000' AGL
  • Few at 10,000' AGL
  • Thunderstorm
  • Rain
TAF YSTW 200508Z 2006/2024 08008KT 9999 FEW030 SCT100 PROB30 TEMPO 2006/2024 VRB25G40KT 4000 TSRA SCT030 FEW100CB
Issued Jan-20 @ 05:08 UTC
(7 hours ago)
Valid From Jan-20 @ 06:00 UTC
(6 hours ago)
Valid To Jan-21 @ 00:00 UTC
(in 12 hours)
Jan-20 @ 06:00 - Jan-21 @ 00:00
Wind Visibility
80° at 8 knots 10,000+ meters
Clouds
  • Few at 3,000' AGL
  • Scattered at 10,000' AGL
Probability 30% Temporary Jan-20 @ 06:00 - Jan-21 @ 00:00
Wind Visibility
Variable at 25 knots
 Gusting to 40 knots
4,007 meters
Clouds
  • Scattered at 3,000' AGL
  • Few at 10,000' AGL
Conditions
  • Thunderstorm
  • Rain